Time;durP1;ratioP1;P1;durP2;ratioP2;P2;SDS_P1;SDS_P2;PMS_P1;PMS_P2;Temp;Humidity;BMP_temperature;BMP_pressure;BME280_temperature;BME280_humidity;BME280_pressure;Samples;Min_cycle;Max_cycle;Signal;HPM_P1;HPM_P2
2022/06/01 00:01:51;;;;;;;2.20;2.00;;;;;;;21.18;100.00;100187.63;5092075;28;20198;-72
2022/06/01 00:04:19;;;;;;;3.40;1.80;;;;;;;20.95;100.00;100171.50;5092022;28;20200;-73
2022/06/01 00:06:46;;;;;;;5.22;2.95;;;;;;;21.02;100.00;100178.34;5092039;28;20206;-72
2022/06/01 00:09:13;;;;;;;2.30;1.90;;;;;;;20.99;100.00;100173.16;5090455;28;20225;-72
2022/06/01 00:11:40;;;;;;;3.15;2.08;;;;;;;21.01;100.00;100192.41;5082893;28;20199;-72
2022/06/01 00:14:08;;;;;;;4.68;2.83;;;;;;;20.78;100.00;100160.53;5071926;28;20276;-72
2022/06/01 00:16:36;;;;;;;6.15;3.28;;;;;;;21.07;100.00;100180.88;5071869;28;20198;-72
2022/06/01 00:19:03;;;;;;;5.13;3.20;;;;;;;20.96;100.00;100167.97;5075224;28;20198;-72
2022/06/01 00:21:30;;;;;;;6.22;3.35;;;;;;;20.59;100.00;100131.13;5081676;28;20199;-72
2022/06/01 00:23:56;;;;;;;7.78;3.80;;;;;;;20.79;100.00;100185.97;5054805;28;20214;-73
2022/06/01 00:26:23;;;;;;;3.10;2.80;;;;;;;20.83;100.00;100166.56;5078595;28;20581;-72
2022/06/01 00:28:50;;;;;;;3.20;2.60;;;;;;;20.83;100.00;100177.09;5057299;28;20203;-72
2022/06/01 00:31:17;;;;;;;4.68;2.92;;;;;;;20.81;100.00;100181.53;5083488;28;20199;-73
2022/06/01 00:33:45;;;;;;;5.50;2.58;;;;;;;20.84;100.00;100184.06;5071734;28;20209;-72
2022/06/01 00:36:12;;;;;;;5.07;3.05;;;;;;;20.88;100.00;100179.59;5046412;28;20210;-73
2022/06/01 00:38:39;;;;;;;2.97;2.60;;;;;;;20.82;100.00;100183.25;5036026;28;20791;-72
2022/06/01 00:41:05;;;;;;;2.20;2.00;;;;;;;20.78;100.00;100189.50;5090954;28;20209;-72
2022/06/01 00:43:44;;;;;;;4.47;2.50;;;;;;;20.52;100.00;100168.19;5055649;28;20206;-72
2022/06/01 00:46:11;;;;;;;4.00;2.75;;;;;;;20.28;100.00;100173.16;5091018;28;20725;-73
2022/06/01 00:48:43;;;;;;;7.60;2.33;;;;;;;20.36;100.00;100172.97;5071746;28;20643;-72
2022/06/01 00:51:16;;;;;;;3.75;2.20;;;;;;;20.55;100.00;100181.28;5058654;28;20207;-72
2022/06/01 00:53:45;;;;;;;6.57;2.20;;;;;;;20.50;100.00;100173.50;5071469;28;20248;-72
2022/06/01 00:56:16;;;;;;;2.45;2.30;;;;;;;20.42;100.00;100180.72;5083332;28;20209;-72
2022/06/01 00:58:45;;;;;;;6.28;4.78;;;;;;;20.34;100.00;100174.75;5087670;28;20268;-73
2022/06/01 01:01:15;;;;;;;3.83;2.40;;;;;;;20.29;100.00;100168.75;5059595;28;20222;-72
2022/06/01 01:03:45;;;;;;;7.57;2.45;;;;;;;20.44;100.00;100167.53;5070700;28;20195;-72
2022/06/01 01:06:17;;;;;;;3.97;2.40;;;;;;;20.36;100.00;100159.81;5087490;28;20204;-72
2022/06/01 01:08:46;;;;;;;3.63;2.22;;;;;;;20.36;100.00;100165.06;5015699;28;20230;-72
2022/06/01 01:11:14;;;;;;;14.85;7.25;;;;;;;19.86;100.00;100079.34;5064333;28;20202;-72
2022/06/01 01:13:46;;;;;;;2.83;2.63;;;;;;;20.34;100.00;100155.44;5088307;28;20194;-72
2022/06/01 01:16:15;;;;;;;3.00;2.80;;;;;;;20.27;100.00;100145.06;5073714;28;20199;-72
2022/06/01 01:18:44;;;;;;;3.38;2.78;;;;;;;20.05;100.00;100116.59;5016299;28;20282;-72
2022/06/01 01:21:17;;;;;;;3.47;2.85;;;;;;;20.16;100.00;100149.69;5058716;28;20190;-72
2022/06/01 01:23:51;;;;;;;3.13;2.70;;;;;;;20.07;100.00;100141.16;5034545;28;20198;-72
2022/06/01 01:26:22;;;;;;;6.05;2.90;;;;;;;19.85;100.00;100114.44;5087700;28;20216;-72
2022/06/01 01:28:49;;;;;;;5.18;2.83;;;;;;;19.85;100.00;100124.09;5089810;28;20206;-72
2022/06/01 01:31:18;;;;;;;6.05;2.95;;;;;;;19.96;100.00;100141.38;5089642;28;20202;-72
2022/06/01 01:33:47;;;;;;;5.50;2.60;;;;;;;19.78;100.00;100128.63;5085736;28;20217;-72
2022/06/01 01:36:16;;;;;;;2.70;2.50;;;;;;;19.80;100.00;100132.94;5088824;28;20229;-72
2022/06/01 01:38:50;;;;;;;3.45;2.92;;;;;;;19.83;100.00;100139.94;5090308;28;20197;-72
2022/06/01 01:41:24;;;;;;;5.18;3.08;;;;;;;19.56;100.00;100090.50;5090515;28;20724;-72
2022/06/01 01:43:59;;;;;;;4.10;3.13;;;;;;;19.80;100.00;100129.44;5085380;28;20202;-72
2022/06/01 01:46:27;;;;;;;3.75;3.00;;;;;;;19.73;100.00;100131.34;5086664;28;20197;-72
2022/06/01 01:48:54;;;;;;;6.18;3.40;;;;;;;19.55;100.00;100096.69;5070246;28;20641;-72
2022/06/01 01:51:22;;;;;;;5.88;3.58;;;;;;;19.72;100.00;100126.13;5085401;28;20201;-72
2022/06/01 01:53:49;;;;;;;5.60;3.63;;;;;;;19.71;100.00;100125.25;5035585;28;20765;-72
2022/06/01 01:56:36;;;;;;;3.40;3.20;;;;;;;19.67;100.00;100125.34;5068302;28;20227;-72
2022/06/01 01:59:17;;;;;;;7.90;3.47;;;;;;;19.52;100.00;100094.09;5064813;28;20301;-72
2022/06/01 02:01:52;;;;;;;6.35;4.28;;;;;;;19.59;100.00;100108.84;5070014;28;20209;-72
2022/06/01 02:07:13;;;;;;;7.00;5.78;;;;;;;19.64;100.00;100123.66;5057389;28;20241;-72
2022/06/01 02:12:44;;;;;;;6.40;3.83;;;;;;;19.68;100.00;100111.31;5070013;28;20214;-72
2022/06/01 02:15:16;;;;;;;7.15;3.47;;;;;;;19.71;100.00;100133.16;5070849;28;20900;-72
2022/06/01 02:17:50;;;;;;;3.80;3.45;;;;;;;19.39;100.00;100082.97;5074191;28;20207;-72
2022/06/01 02:20:27;;;;;;;4.07;3.67;;;;;;;19.73;100.00;100138.38;5073905;28;20237;-72
2022/06/01 02:22:54;;;;;;;4.68;3.53;;;;;;;19.65;100.00;100121.91;5075981;28;20202;-72
2022/06/01 02:25:21;;;;;;;7.47;5.88;;;;;;;19.70;100.00;100133.19;5074161;28;20211;-72
2022/06/01 02:27:52;;;;;;;3.72;3.47;;;;;;;19.83;100.00;100139.94;5074228;28;20195;-72
2022/06/01 02:30:23;;;;;;;4.20;3.53;;;;;;;19.56;100.00;100080.88;5073998;28;20194;-72
2022/06/01 02:32:51;;;;;;;3.83;3.35;;;;;;;19.92;100.00;100137.09;5073768;28;20199;-72
2022/06/01 02:35:22;;;;;;;4.85;3.15;;;;;;;19.65;100.00;100095.59;5080857;28;20221;-72
2022/06/01 02:37:55;;;;;;;6.40;3.17;;;;;;;19.91;100.00;100145.88;5093664;28;20280;-72
2022/06/01 02:40:25;;;;;;;5.18;3.00;;;;;;;19.83;100.00;100158.34;5078113;28;20206;-72
2022/06/01 02:42:54;;;;;;;5.55;4.65;;;;;;;19.90;100.00;100154.69;5075579;28;20702;-72
2022/06/01 02:45:23;;;;;;;10.40;7.18;;;;;;;19.27;100.00;100055.16;5030251;28;20200;-72
2022/06/01 02:47:52;;;;;;;5.57;4.78;;;;;;;19.72;100.00;100147.19;5065015;28;20256;-72
2022/06/01 02:50:21;;;;;;;6.97;4.03;;;;;;;19.82;100.00;100143.44;5073619;28;20195;-72
2022/06/01 02:52:48;;;;;;;5.13;4.35;;;;;;;19.83;100.00;100142.56;5077412;28;20203;-72
2022/06/01 02:55:17;;;;;;;5.03;4.50;;;;;;;19.93;100.00;100145.84;5073807;28;20223;-72
2022/06/01 02:57:45;;;;;;;8.25;4.68;;;;;;;19.95;100.00;100144.03;5073234;28;20202;-72
2022/06/01 03:00:18;;;;;;;6.85;4.85;;;;;;;19.97;100.00;100140.50;5072906;28;20213;-72
2022/06/01 03:02:46;;;;;;;6.78;4.57;;;;;;;20.02;100.00;100148.25;5045957;28;20230;-72
2022/06/01 03:05:13;;;;;;;5.38;4.68;;;;;;;20.04;100.00;100146.47;5078512;28;20263;-72
2022/06/01 03:07:41;;;;;;;6.38;4.50;;;;;;;19.89;100.00;100120.50;5092526;28;20198;-72
2022/06/01 03:10:09;;;;;;;6.40;4.22;;;;;;;20.03;100.00;100139.47;5091172;28;20237;-72
2022/06/01 03:12:36;;;;;;;4.40;3.83;;;;;;;20.16;100.00;100154.94;5043370;28;20253;-72
2022/06/01 03:15:04;;;;;;;6.30;4.25;;;;;;;20.33;100.00;100157.25;5067040;28;20767;-72
2022/06/01 03:17:32;;;;;;;4.75;4.13;;;;;;;20.77;100.00;100164.06;5072796;28;20198;-72
2022/06/01 03:19:58;;;;;;;3.83;3.42;;;;;;;21.18;100.00;100158.63;5072689;28;20199;-72
2022/06/01 03:22:25;;;;;;;3.53;3.22;;;;;;;21.89;100.00;100184.75;5068989;28;20564;-72
2022/06/01 03:24:52;;;;;;;5.05;3.60;;;;;;;22.26;100.00;100200.34;5072632;28;20202;-72
2022/06/01 03:27:20;;;;;;;4.22;3.55;;;;;;;22.64;100.00;100200.03;5070705;28;20622;-72
2022/06/01 03:29:47;;;;;;;10.50;4.05;;;;;;;23.15;100.00;100202.72;5071459;28;20574;-72
2022/06/01 03:32:13;;;;;;;7.25;3.97;;;;;;;23.50;100.00;100203.34;5071290;28;20194;-72
2022/06/01 03:34:42;;;;;;;5.95;3.42;;;;;;;23.79;100.00;100210.22;5071242;28;20206;-73
2022/06/01 03:37:08;;;;;;;7.35;3.00;;;;;;;24.21;100.00;100216.56;5070811;28;20195;-73
2022/06/01 03:39:35;;;;;;;5.13;3.25;;;;;;;24.44;100.00;100224.47;5035851;28;20203;-73
2022/06/01 03:42:02;;;;;;;5.68;4.60;;;;;;;24.48;100.00;100165.09;5057099;28;20203;-73
2022/06/01 03:47:12;;;;;;;5.40;2.60;;;;;;;25.61;93.65;100232.91;5030312;28;20207;-73
2022/06/01 03:49:39;;;;;;;6.07;3.78;;;;;;;25.69;93.55;100236.06;5028610;28;20641;-73
2022/06/01 03:52:09;;;;;;;4.68;3.10;;;;;;;25.91;91.03;100233.28;5026074;28;20192;-72
2022/06/01 03:54:36;;;;;;;6.30;4.00;;;;;;;26.01;88.90;100235.47;5026943;28;20222;-72
2022/06/01 03:57:04;;;;;;;8.65;4.93;;;;;;;25.80;92.43;100223.16;5028742;28;20219;-71
2022/06/01 03:59:32;;;;;;;13.40;6.90;;;;;;;26.04;91.66;100232.66;5027920;28;20983;-72
2022/06/01 04:02:01;;;;;;;9.93;4.63;;;;;;;26.17;89.05;100224.13;5028596;28;20192;-71
2022/06/01 04:04:28;;;;;;;5.10;2.75;;;;;;;26.26;88.89;100229.91;5028701;28;20228;-72
2022/06/01 04:06:54;;;;;;;4.30;2.45;;;;;;;26.43;84.85;100227.31;5032601;28;20267;-70
2022/06/01 04:09:22;;;;;;;17.48;4.47;;;;;;;26.21;85.34;100225.75;4989526;28;1157560;-71
2022/06/01 04:11:51;;;;;;;6.50;2.90;;;;;;;26.44;83.85;100222.84;5047674;28;20210;-70
2022/06/01 04:14:18;;;;;;;4.72;3.97;;;;;;;27.72;79.72;100231.47;5049114;28;20210;-70
2022/06/01 04:16:45;;;;;;;2.90;2.65;;;;;;;28.35;70.61;100244.97;5048584;28;20222;-71
2022/06/01 04:19:12;;;;;;;2.97;1.63;;;;;;;28.57;68.58;100232.16;5045314;28;20195;-70
2022/06/01 04:21:41;;;;;;;4.78;3.15;;;;;;;28.61;68.94;100239.00;5033717;28;20208;-70
2022/06/01 04:24:12;;;;;;;5.53;2.22;;;;;;;29.17;64.90;100230.44;5042686;28;20213;-70
2022/06/01 04:26:40;;;;;;;9.68;2.85;;;;;;;28.96;66.28;100218.34;5071635;28;20209;-71
2022/06/01 04:29:07;;;;;;;2.30;2.10;;;;;;;29.48;63.09;100226.81;5071436;28;20202;-70
2022/06/01 04:31:35;;;;;;;4.10;2.40;;;;;;;29.93;60.59;100240.03;5052335;28;20197;-71
2022/06/01 04:34:02;;;;;;;3.92;2.30;;;;;;;29.83;59.14;100217.47;5071687;28;20210;-70
2022/06/01 04:36:28;;;;;;;2.40;1.85;;;;;;;30.46;58.80;100233.16;5073734;28;20689;-71
2022/06/01 04:38:55;;;;;;;2.95;2.17;;;;;;;30.67;57.19;100229.09;5089832;28;20205;-71
2022/06/01 04:41:22;;;;;;;3.45;2.05;;;;;;;30.98;53.24;100226.13;5052310;28;20661;-72
2022/06/01 04:43:50;;;;;;;3.95;1.88;;;;;;;31.08;53.34;100225.50;5089298;28;20198;-73
2022/06/01 04:46:17;;;;;;;2.15;2.05;;;;;;;31.19;51.78;100204.19;5091221;28;20202;-71
2022/06/01 04:48:44;;;;;;;2.30;2.10;;;;;;;31.12;52.13;100230.53;5073052;28;20257;-71
2022/06/01 04:51:10;;;;;;;3.92;2.70;;;;;;;30.81;52.37;100163.91;5071171;28;20205;-71
2022/06/01 04:53:37;;;;;;;2.67;2.05;;;;;;;31.25;52.36;100228.75;5078485;28;20205;-72
2022/06/01 04:56:04;;;;;;;4.38;2.67;;;;;;;31.07;52.45;100221.13;5086677;28;20228;-72
2022/06/01 04:58:31;;;;;;;2.50;2.30;;;;;;;31.11;52.75;100233.34;5061718;28;20198;-74
2022/06/01 05:00:59;;;;;;;2.80;2.33;;;;;;;31.16;52.03;100236.56;5071058;28;20209;-71
2022/06/01 05:03:26;;;;;;;3.72;2.28;;;;;;;30.90;52.20;100235.59;5068230;28;20674;-71
2022/06/01 05:05:53;;;;;;;2.47;2.25;;;;;;;31.17;52.05;100236.47;5065660;28;20194;-70
2022/06/01 05:08:20;;;;;;;2.47;2.28;;;;;;;30.98;52.41;100241.31;5084713;28;20225;-71
2022/06/01 05:10:47;;;;;;;9.73;2.42;;;;;;;30.81;52.39;100239.75;5073403;28;20206;-71
2022/06/01 05:13:18;;;;;;;3.83;2.35;;;;;;;30.96;52.49;100256.63;5079925;28;20207;-72
2022/06/01 05:15:48;;;;;;;12.70;3.25;;;;;;;30.42;54.15;100258.41;5071291;28;20321;-72
2022/06/01 05:18:17;;;;;;;7.43;2.85;;;;;;;30.39;55.69;100263.91;5070693;28;20198;-73
2022/06/01 05:20:44;;;;;;;2.75;2.53;;;;;;;29.98;56.90;100272.72;5088133;28;20201;-72
2022/06/01 05:23:11;;;;;;;9.25;4.75;;;;;;;30.22;56.87;100269.47;5073635;28;20213;-71
2022/06/01 05:25:38;;;;;;;8.50;2.90;;;;;;;30.07;56.53;100241.88;5074219;28;20206;-70
2022/06/01 05:28:06;;;;;;;4.35;3.00;;;;;;;30.55;56.01;100270.03;5069749;28;20205;-71
2022/06/01 05:30:33;;;;;;;6.25;2.80;;;;;;;30.71;55.60;100269.91;5017655;28;20281;-70
2022/06/01 05:32:59;;;;;;;11.57;3.35;;;;;;;30.75;56.20;100277.63;5050504;28;20279;-71
2022/06/01 05:35:27;;;;;;;7.82;3.47;;;;;;;30.50;57.22;100283.69;5067043;28;20198;-70
2022/06/01 05:37:54;;;;;;;23.38;4.20;;;;;;;30.16;57.16;100273.38;5080777;28;20209;-70
2022/06/01 05:40:21;;;;;;;9.98;3.70;;;;;;;30.38;56.16;100280.94;5078432;28;20213;-71
2022/06/01 05:42:48;;;;;;;9.73;3.70;;;;;;;30.28;57.58;100271.78;5070492;28;20213;-71
2022/06/01 05:45:15;;;;;;;6.90;3.10;;;;;;;30.39;56.67;100269.28;5070333;28;20733;-72
2022/06/01 05:47:42;;;;;;;17.02;3.83;;;;;;;30.56;56.02;100273.56;5070195;28;20198;-71
2022/06/01 05:50:09;;;;;;;8.00;3.33;;;;;;;30.10;58.04;100251.53;5057851;28;20199;-71
2022/06/01 05:52:38;;;;;;;8.73;3.58;;;;;;;30.54;57.09;100270.97;5033447;28;20202;-71
2022/06/01 05:55:08;;;;;;;8.85;3.70;;;;;;;30.43;57.87;100269.00;5069766;28;20198;-71
2022/06/01 05:57:35;;;;;;;5.93;3.40;;;;;;;29.93;59.90;100266.78;5050682;28;20548;-71
2022/06/01 06:00:02;;;;;;;9.18;4.03;;;;;;;29.59;60.71;100261.75;5059660;28;20261;-71
2022/06/01 06:02:29;;;;;;;11.35;3.65;;;;;;;28.16;66.90;100268.25;5065579;28;20200;-71
2022/06/01 06:04:56;;;;;;;14.13;3.85;;;;;;;28.00;71.45;100269.03;5061997;28;20207;-71
2022/06/01 06:07:23;;;;;;;12.73;4.25;;;;;;;28.54;69.97;100258.97;5062742;28;20688;-71
2022/06/01 06:09:51;;;;;;;13.77;3.88;;;;;;;28.80;69.11;100255.72;5063989;28;20745;-71
2022/06/01 06:12:18;;;;;;;7.50;3.75;;;;;;;28.66;70.84;100268.97;5061483;28;20747;-72
2022/06/01 06:14:45;;;;;;;10.70;4.43;;;;;;;28.95;69.47;100276.22;5069428;28;20230;-72
2022/06/01 06:17:12;;;;;;;10.90;4.45;;;;;;;28.49;72.30;100269.94;5069555;28;20684;-71
2022/06/01 06:19:39;;;;;;;4.60;3.83;;;;;;;28.07;74.90;100218.94;5033778;28;20667;-72
2022/06/01 06:22:06;;;;;;;7.65;3.83;;;;;;;28.34;76.21;100273.44;5033830;28;20620;-72
2022/06/01 06:24:34;;;;;;;6.07;3.60;;;;;;;28.08;77.20;100272.19;5069006;28;20336;-71
2022/06/01 06:27:02;;;;;;;9.43;3.58;;;;;;;27.69;80.14;100268.06;5069513;28;20207;-71
2022/06/01 06:29:29;;;;;;;3.70;3.28;;;;;;;27.58;81.20;100265.97;5069417;28;20667;-71
2022/06/01 06:31:56;;;;;;;10.13;3.58;;;;;;;27.09;86.69;100273.75;5069141;28;20211;-71
2022/06/01 06:34:22;;;;;;;13.77;3.85;;;;;;;26.60;88.79;100261.97;5069281;28;20213;-71
2022/06/01 06:36:50;;;;;;;16.23;4.43;;;;;;;26.43;93.56;100269.84;5050367;28;20593;-71
2022/06/01 06:39:16;;;;;;;8.65;3.63;;;;;;;26.14;96.34;100257.91;5069071;28;20690;-71
2022/06/01 06:49:06;;;;;;;6.93;4.00;;;;;;;25.80;100.00;100256.81;5026933;28;20203;-71
2022/06/01 06:51:33;;;;;;;7.20;3.53;;;;;;;25.70;100.00;100248.41;5026671;28;20197;-71
2022/06/01 06:54:01;;;;;;;11.52;3.88;;;;;;;25.77;100.00;100247.22;5026682;28;20672;-71
2022/06/01 06:56:28;;;;;;;4.00;3.33;;;;;;;25.92;100.00;100253.63;5026641;28;20709;-71
2022/06/01 06:58:55;;;;;;;10.98;3.53;;;;;;;25.96;99.13;100256.09;5026805;28;20200;-71
2022/06/01 07:01:22;;;;;;;5.55;3.78;;;;;;;25.86;100.00;100252.13;5027806;28;20655;-71
2022/06/01 07:03:49;;;;;;;10.70;4.00;;;;;;;25.77;100.00;100249.88;5030520;28;20208;-71
2022/06/01 07:06:18;;;;;;;7.75;3.53;;;;;;;25.69;100.00;100249.34;5030169;28;20204;-71
2022/06/01 07:08:47;;;;;;;3.90;3.30;;;;;;;25.62;100.00;100247.88;5013551;28;20228;-71
2022/06/01 07:11:16;;;;;;;5.65;3.40;;;;;;;25.51;100.00;100223.59;4981257;28;20200;-71
2022/06/01 07:13:43;;;;;;;5.53;3.90;;;;;;;25.92;100.00;100243.88;5030176;28;20343;-71
2022/06/01 07:16:12;;;;;;;6.57;3.17;;;;;;;25.65;100.00;100218.53;5030011;28;20290;-70
2022/06/01 07:18:41;;;;;;;6.68;3.67;;;;;;;25.74;100.00;100239.38;5030087;28;20740;-70
2022/06/01 07:21:08;;;;;;;9.57;3.60;;;;;;;25.94;100.00;100249.97;5030146;28;20643;-71
2022/06/01 07:23:38;;;;;;;5.80;3.17;;;;;;;25.99;100.00;100247.97;5030119;28;20296;-71
2022/06/01 07:26:06;;;;;;;5.95;3.28;;;;;;;25.87;100.00;100250.31;5029964;28;20200;-71
2022/06/01 07:28:34;;;;;;;8.73;3.58;;;;;;;25.93;100.00;100252.72;5029640;28;20204;-70
2022/06/01 07:31:00;;;;;;;9.38;3.80;;;;;;;25.87;100.00;100247.66;5029842;28;20204;-71
2022/06/01 07:33:30;;;;;;;23.85;4.25;;;;;;;26.10;100.00;100248.34;5029809;28;20295;-72
2022/06/01 07:35:57;;;;;;;7.68;3.60;;;;;;;26.34;100.00;100253.47;5029652;28;20337;-72
2022/06/01 07:43:58;;;;;;;5.47;3.20;;;;;;;26.47;98.07;100244.00;5071698;28;20698;-71
2022/06/01 07:46:25;;;;;;;9.10;3.45;;;;;;;26.50;98.13;100246.53;5071766;28;20199;-71
2022/06/01 07:48:53;;;;;;;8.93;3.90;;;;;;;26.47;97.30;100228.88;5071746;28;20217;-71
2022/06/01 07:51:20;;;;;;;14.55;3.65;;;;;;;26.83;98.05;100242.25;5071699;28;20205;-71
2022/06/01 07:53:47;;;;;;;11.93;3.47;;;;;;;26.81;96.45;100209.50;5071892;28;20226;-71
2022/06/01 07:56:15;;;;;;;7.00;3.72;;;;;;;27.05;93.87;100240.25;5036466;28;20230;-71
2022/06/01 07:58:43;;;;;;;9.13;3.70;;;;;;;26.79;95.29;100240.63;5071610;28;20622;-71
2022/06/01 08:01:10;;;;;;;8.65;3.88;;;;;;;26.67;94.31;100227.94;5071666;28;20701;-71
2022/06/01 08:03:37;;;;;;;9.73;4.30;;;;;;;26.92;96.25;100246.25;5071430;28;20195;-72
2022/06/01 08:06:04;;;;;;;9.80;3.63;;;;;;;27.16;94.71;100252.16;5053644;28;20698;-71
2022/06/01 08:08:31;;;;;;;5.47;3.60;;;;;;;27.01;93.90;100254.63;5066383;28;20264;-71
2022/06/01 08:10:59;;;;;;;6.38;3.70;;;;;;;26.98;93.65;100252.13;5062597;28;20203;-71
2022/06/01 08:13:26;;;;;;;5.43;3.53;;;;;;;26.92;90.84;100241.81;5060048;28;20227;-71
2022/06/01 08:15:54;;;;;;;6.18;3.00;;;;;;;26.94;81.94;100249.69;5067738;28;20205;-71
2022/06/01 08:18:23;;;;;;;5.60;3.15;;;;;;;27.05;82.39;100253.56;5071338;28;20836;-71
2022/06/01 08:20:52;;;;;;;6.20;3.05;;;;;;;27.11;82.67;100255.91;5070018;28;20202;-71
2022/06/01 08:23:19;;;;;;;5.85;3.58;;;;;;;26.77;86.87;100220.34;5058560;28;20203;-71
2022/06/01 08:25:46;;;;;;;7.72;2.70;;;;;;;27.00;81.52;100252.91;5071083;28;20268;-71
2022/06/01 08:28:13;;;;;;;4.63;3.40;;;;;;;26.96;84.97;100235.41;5068793;28;20313;-71
2022/06/01 08:30:42;;;;;;;3.53;3.05;;;;;;;27.20;84.98;100240.41;5059337;28;20208;-71
2022/06/01 08:33:10;;;;;;;4.25;3.38;;;;;;;27.38;84.77;100218.16;5069158;28;20298;-71
2022/06/01 08:35:39;;;;;;;11.50;3.03;;;;;;;27.66;83.99;100254.91;5070912;28;20221;-71
2022/06/01 08:38:06;;;;;;;5.03;3.25;;;;;;;27.15;85.97;100243.28;5067867;28;20221;-72
2022/06/01 08:40:38;;;;;;;10.23;3.38;;;;;;;27.23;84.75;100205.63;5059535;28;20207;-71
2022/06/01 08:43:08;;;;;;;5.82;3.40;;;;;;;27.56;83.03;100251.88;5036556;28;20206;-72
2022/06/01 08:45:36;;;;;;;5.28;3.63;;;;;;;27.79;81.57;100243.50;5070495;28;20191;-72
2022/06/01 08:48:05;;;;;;;9.43;3.80;;;;;;;27.84;81.88;100236.16;5070435;28;20198;-72
2022/06/01 08:50:36;;;;;;;3.38;3.13;;;;;;;27.56;82.71;100188.78;5070514;28;20245;-72
2022/06/01 08:53:05;;;;;;;5.35;3.53;;;;;;;27.82;81.28;100235.38;5070781;28;20205;-71
2022/06/01 08:55:43;;;;;;;5.15;3.17;;;;;;;28.00;81.99;100246.88;5056545;28;20741;-71
2022/06/01 08:58:15;;;;;;;4.10;3.47;;;;;;;27.94;81.58;100248.03;5070161;28;20226;-72
2022/06/01 09:00:48;;;;;;;7.45;2.85;;;;;;;27.43;80.74;100222.28;5050361;28;20287;-72
2022/06/01 09:03:24;;;;;;;3.05;2.75;;;;;;;27.63;82.08;100242.63;5028232;28;20671;-72
2022/06/01 09:05:56;;;;;;;7.72;3.10;;;;;;;27.80;82.28;100239.06;5057528;28;20195;-72
2022/06/01 09:08:29;;;;;;;5.47;2.95;;;;;;;27.99;77.85;100229.13;5070260;28;20625;-72
2022/06/01 09:11:05;;;;;;;5.93;2.70;;;;;;;28.13;72.70;100236.41;5057406;28;20268;-72
2022/06/01 09:13:39;;;;;;;2.65;2.45;;;;;;;27.89;70.77;100223.44;5069737;28;20210;-72
2022/06/01 09:16:11;;;;;;;6.88;2.38;;;;;;;28.04;71.58;100221.72;5054249;28;20206;-72
2022/06/01 09:18:42;;;;;;;3.92;2.28;;;;;;;27.92;70.33;100217.94;5070377;28;20747;-71
2022/06/01 09:24:06;;;;;;;6.88;2.33;;;;;;;27.81;71.05;100219.47;5069597;28;20242;-71
2022/06/01 09:26:33;;;;;;;8.90;2.60;;;;;;;27.34;67.94;100173.97;5051255;28;20214;-71
2022/06/01 09:29:02;;;;;;;2.92;1.98;;;;;;;27.66;69.66;100225.59;5069830;28;20695;-71
2022/06/01 09:31:35;;;;;;;4.50;2.22;;;;;;;27.75;69.50;100235.78;5069843;28;20195;-71
2022/06/01 09:34:24;;;;;;;2.75;2.58;;;;;;;27.66;67.62;100233.59;5070127;28;20679;-71
2022/06/01 09:37:02;;;;;;;3.00;1.90;;;;;;;27.86;68.62;100236.06;5059258;28;20230;-71
2022/06/01 09:39:29;;;;;;;5.13;2.00;;;;;;;27.85;69.75;100235.22;5069738;28;20214;-71
2022/06/01 09:42:11;;;;;;;2.30;2.20;;;;;;;27.92;68.21;100233.94;5069865;28;20221;-71
2022/06/01 09:44:44;;;;;;;2.22;2.03;;;;;;;27.91;68.35;100226.88;5069618;28;20226;-71
2022/06/01 09:47:31;;;;;;;2.63;2.42;;;;;;;28.20;68.07;100228.00;5070008;28;20211;-71
2022/06/01 09:50:01;;;;;;;2.38;2.28;;;;;;;28.15;67.40;100219.38;5069567;28;20654;-71
2022/06/01 09:52:32;;;;;;;3.47;2.30;;;;;;;28.14;67.50;100222.13;5069603;28;20676;-71
2022/06/01 09:55:10;;;;;;;2.03;1.88;;;;;;;28.00;67.16;100221.03;5069601;28;20198;-71
2022/06/01 09:57:38;;;;;;;2.40;2.20;;;;;;;27.97;66.68;100212.34;5069776;28;20299;-71
2022/06/01 10:06:09;;;;;;;3.67;2.45;;;;;;;28.21;65.84;100156.84;5069643;28;20237;-72
2022/06/01 10:08:42;;;;;;;3.08;2.50;;;;;;;28.56;65.06;100209.06;5050899;28;20229;-70
2022/06/01 10:11:26;;;;;;;6.72;2.42;;;;;;;28.86;65.31;100214.50;5069346;28;20280;-71
2022/06/01 10:13:55;;;;;;;8.77;2.60;;;;;;;28.78;63.29;100208.72;5051458;28;20217;-71
2022/06/01 10:16:35;;;;;;;3.60;2.75;;;;;;;28.97;63.96;100207.56;5060980;28;20340;-71
2022/06/01 10:19:05;;;;;;;6.93;2.83;;;;;;;28.82;64.23;100192.44;5065698;28;20705;-70
2022/06/01 10:21:46;;;;;;;5.47;2.38;;;;;;;29.01;64.00;100184.19;5069283;28;20670;-71
2022/06/01 10:24:20;;;;;;;4.65;2.45;;;;;;;29.20;62.97;100200.00;5069280;28;20639;-71
2022/06/01 10:26:51;;;;;;;8.00;3.17;;;;;;;29.41;63.21;100198.72;5069229;28;20198;-71
2022/06/01 10:29:20;;;;;;;4.50;2.67;;;;;;;29.31;60.78;100189.56;5069301;28;20202;-71
2022/06/01 10:31:51;;;;;;;7.15;3.33;;;;;;;29.38;61.85;100183.75;5068973;28;20666;-71
2022/06/01 10:34:22;;;;;;;4.55;2.75;;;;;;;29.57;60.07;100199.53;5069190;28;20678;-71
2022/06/01 10:36:55;;;;;;;5.07;2.80;;;;;;;29.66;60.54;100179.38;5070861;28;20598;-71
2022/06/01 10:39:27;;;;;;;3.03;2.65;;;;;;;29.44;62.13;100182.50;5073072;28;20214;-72
2022/06/01 10:42:06;;;;;;;6.18;2.95;;;;;;;29.35;61.36;100193.78;5072952;28;20203;-72
2022/06/01 10:44:42;;;;;;;2.60;2.50;;;;;;;29.38;60.92;100188.25;5072945;28;20367;-72
2022/06/01 10:47:15;;;;;;;6.68;2.55;;;;;;;29.59;60.18;100189.59;5073158;28;20255;-72
2022/06/01 10:49:49;;;;;;;6.15;2.90;;;;;;;29.53;59.89;100192.66;4991940;28;20237;-72
2022/06/01 10:52:26;;;;;;;3.50;2.80;;;;;;;29.67;60.71;100190.00;5072856;28;20202;-72
2022/06/01 10:55:05;;;;;;;6.53;3.45;;;;;;;29.71;60.38;100188.84;5072670;28;20214;-72
2022/06/01 10:57:34;;;;;;;3.67;2.67;;;;;;;29.85;59.84;100194.22;5072586;28;20316;-72
2022/06/01 11:00:01;;;;;;;4.03;3.63;;;;;;;29.95;58.50;100184.66;5072680;28;20216;-72
2022/06/01 11:03:02;;;;;;;5.95;2.40;;;;;;;29.77;58.35;100185.78;5072515;28;20206;-72
2022/06/01 11:05:38;;;;;;;3.20;2.90;;;;;;;29.41;59.42;100188.03;5000540;28;20219;-72
2022/06/01 11:08:24;;;;;;;4.28;3.13;;;;;;;29.39;60.77;100181.94;4996447;28;20243;-72
2022/06/01 11:11:08;;;;;;;9.98;2.88;;;;;;;29.58;60.85;100173.63;4961427;28;20200;-72
2022/06/01 11:13:47;;;;;;;7.22;3.20;;;;;;;29.94;60.35;100187.41;4990690;28;20213;-72
2022/06/01 11:16:28;;;;;;;5.90;3.55;;;;;;;30.09;59.21;100180.25;4998097;28;20209;-72
2022/06/01 11:19:05;;;;;;;6.30;3.17;;;;;;;29.92;59.29;100178.66;5010219;28;20239;-72
2022/06/01 11:21:42;;;;;;;3.85;3.30;;;;;;;30.10;58.91;100176.63;5010426;28;20323;-72
2022/06/01 11:24:25;;;;;;;5.35;2.97;;;;;;;29.81;59.36;100165.94;5010068;28;20200;-71
2022/06/01 11:27:06;;;;;;;5.25;3.20;;;;;;;29.65;60.13;100165.16;5010248;28;20199;-72
2022/06/01 11:29:53;;;;;;;7.32;3.00;;;;;;;29.76;60.35;100170.69;5010039;28;20673;-72
2022/06/01 11:32:26;;;;;;;3.78;3.15;;;;;;;29.72;59.49;100139.75;4960917;28;20220;-72
2022/06/01 11:34:57;;;;;;;3.42;2.72;;;;;;;29.93;58.49;100148.28;5009637;28;20204;-72
2022/06/01 11:37:30;;;;;;;8.50;2.88;;;;;;;30.20;58.17;100164.38;5009795;28;20294;-72
2022/06/01 11:40:04;;;;;;;3.35;3.05;;;;;;;30.37;58.51;100150.75;5009952;28;20266;-72
2022/06/01 11:42:34;;;;;;;4.78;3.30;;;;;;;30.48;57.38;100151.78;5037396;28;20983;-72
2022/06/01 11:45:05;;;;;;;3.47;3.20;;;;;;;30.76;56.80;100139.25;5052021;28;20210;-72
2022/06/01 11:47:41;;;;;;;5.13;3.13;;;;;;;30.48;57.13;100114.31;5049340;28;20294;-72
2022/06/01 11:50:24;;;;;;;5.00;3.10;;;;;;;30.44;56.97;100139.56;5051567;28;20649;-71
2022/06/01 11:52:55;;;;;;;5.18;2.80;;;;;;;30.49;56.04;100139.28;5051900;28;20734;-71
2022/06/01 11:55:31;;;;;;;4.15;2.85;;;;;;;30.66;55.55;100154.22;5051524;28;20195;-71
2022/06/01 11:58:06;;;;;;;3.13;2.92;;;;;;;30.40;55.15;100135.34;5051354;28;20725;-71
2022/06/01 12:00:36;;;;;;;5.35;3.28;;;;;;;30.69;55.42;100128.09;5051746;28;20210;-71
2022/06/01 12:03:39;;;;;;;4.55;2.90;;;;;;;30.76;53.26;100129.38;5051561;28;20203;-72
2022/06/01 12:06:11;;;;;;;5.00;2.90;;;;;;;30.45;53.94;100113.66;5051274;28;20198;-71